sensor_id;sensor_type;location;lat;lon;timestamp;pressure;altitude;pressure_sealevel;temperature;humidity
30819;BME280;17546;42.674;23.284;2022-09-02T00:01:47;94436.94;;;28.60;43.52
30819;BME280;17546;42.674;23.284;2022-09-02T00:04:15;94437.53;;;28.71;43.35
30819;BME280;17546;42.674;23.284;2022-09-02T00:06:40;94437.41;;;28.69;43.39
30819;BME280;17546;42.674;23.284;2022-09-02T00:09:07;94427.50;;;28.32;43.61
30819;BME280;17546;42.674;23.284;2022-09-02T00:11:34;94435.19;;;28.30;43.89
30819;BME280;17546;42.674;23.284;2022-09-02T00:14:01;94444.13;;;28.61;43.47
30819;BME280;17546;42.674;23.284;2022-09-02T00:16:27;94437.59;;;28.47;43.84
30819;BME280;17546;42.674;23.284;2022-09-02T00:18:52;94442.91;;;28.53;43.71
30819;BME280;17546;42.674;23.284;2022-09-02T00:21:18;94445.88;;;28.55;43.68
30819;BME280;17546;42.674;23.284;2022-09-02T00:23:44;94443.28;;;28.47;43.76
30819;BME280;17546;42.674;23.284;2022-09-02T00:26:09;94443.56;;;28.39;43.80
30819;BME280;17546;42.674;23.284;2022-09-02T00:28:35;94451.34;;;28.51;44.14
30819;BME280;17546;42.674;23.284;2022-09-02T00:31:00;94458.88;;;28.58;43.55
30819;BME280;17546;42.674;23.284;2022-09-02T00:33:26;94459.00;;;28.60;43.87
30819;BME280;17546;42.674;23.284;2022-09-02T00:35:51;94451.06;;;28.58;43.75
30819;BME280;17546;42.674;23.284;2022-09-02T00:38:16;94451.44;;;28.64;43.37
30819;BME280;17546;42.674;23.284;2022-09-02T00:40:43;94448.50;;;28.51;43.73
30819;BME280;17546;42.674;23.284;2022-09-02T00:43:08;94451.53;;;28.29;44.47
30819;BME280;17546;42.674;23.284;2022-09-02T00:45:34;94450.22;;;28.44;44.23
30819;BME280;17546;42.674;23.284;2022-09-02T00:47:59;94459.63;;;28.58;43.86
30819;BME280;17546;42.674;23.284;2022-09-02T00:50:27;94456.88;;;28.60;43.96
30819;BME280;17546;42.674;23.284;2022-09-02T00:52:54;94451.97;;;28.37;43.94
30819;BME280;17546;42.674;23.284;2022-09-02T00:55:32;94456.59;;;28.31;44.43
30819;BME280;17546;42.674;23.284;2022-09-02T00:58:00;94462.41;;;28.33;44.00
30819;BME280;17546;42.674;23.284;2022-09-02T01:00:39;94460.16;;;28.43;44.20
30819;BME280;17546;42.674;23.284;2022-09-02T01:03:07;94460.03;;;28.41;44.24
30819;BME280;17546;42.674;23.284;2022-09-02T01:05:35;94469.84;;;28.38;44.38
30819;BME280;17546;42.674;23.284;2022-09-02T01:08:01;94478.72;;;28.44;43.97
30819;BME280;17546;42.674;23.284;2022-09-02T01:10:28;94470.66;;;28.03;44.76
30819;BME280;17546;42.674;23.284;2022-09-02T01:12:57;94474.88;;;27.55;45.86
30819;BME280;17546;42.674;23.284;2022-09-02T01:15:24;94461.69;;;27.03;46.97
30819;BME280;17546;42.674;23.284;2022-09-02T01:17:50;94460.28;;;27.49;46.34
30819;BME280;17546;42.674;23.284;2022-09-02T01:20:17;94470.59;;;26.42;48.78
30819;BME280;17546;42.674;23.284;2022-09-02T01:22:43;94470.75;;;26.77;48.10
30819;BME280;17546;42.674;23.284;2022-09-02T01:25:18;94467.91;;;26.44;48.76
30819;BME280;17546;42.674;23.284;2022-09-02T01:27:44;94467.38;;;26.36;49.23
30819;BME280;17546;42.674;23.284;2022-09-02T01:30:13;94472.78;;;26.32;49.09
30819;BME280;17546;42.674;23.284;2022-09-02T01:32:39;94466.34;;;26.31;48.42
30819;BME280;17546;42.674;23.284;2022-09-02T01:35:05;94470.22;;;26.14;48.88
30819;BME280;17546;42.674;23.284;2022-09-02T01:37:31;94457.97;;;26.12;49.84
30819;BME280;17546;42.674;23.284;2022-09-02T01:39:56;94443.53;;;25.14;51.95
30819;BME280;17546;42.674;23.284;2022-09-02T01:42:22;94435.94;;;25.48;52.36
30819;BME280;17546;42.674;23.284;2022-09-02T01:44:48;94428.94;;;25.08;53.36
30819;BME280;17546;42.674;23.284;2022-09-02T01:47:14;94425.06;;;24.13;55.25
30819;BME280;17546;42.674;23.284;2022-09-02T01:49:39;94423.53;;;23.73;56.79
30819;BME280;17546;42.674;23.284;2022-09-02T01:52:05;94419.53;;;23.77;55.84
30819;BME280;17546;42.674;23.284;2022-09-02T01:54:31;94404.56;;;23.47;56.14
30819;BME280;17546;42.674;23.284;2022-09-02T01:56:56;94400.38;;;23.28;56.43
30819;BME280;17546;42.674;23.284;2022-09-02T01:59:21;94395.22;;;23.44;56.42
30819;BME280;17546;42.674;23.284;2022-09-02T02:01:47;94384.72;;;23.84;54.86
30819;BME280;17546;42.674;23.284;2022-09-02T02:04:12;94387.03;;;23.58;55.63
30819;BME280;17546;42.674;23.284;2022-09-02T02:06:41;94377.56;;;23.83;54.90
30819;BME280;17546;42.674;23.284;2022-09-02T02:09:07;94377.28;;;24.08;54.91
30819;BME280;17546;42.674;23.284;2022-09-02T02:11:32;94383.81;;;24.30;53.77
30819;BME280;17546;42.674;23.284;2022-09-02T02:13:58;94393.63;;;24.29;53.55
30819;BME280;17546;42.674;23.284;2022-09-02T02:16:23;94384.06;;;24.53;52.83
30819;BME280;17546;42.674;23.284;2022-09-02T02:18:48;94375.03;;;24.86;52.39
30819;BME280;17546;42.674;23.284;2022-09-02T02:21:14;94384.81;;;24.64;52.69
30819;BME280;17546;42.674;23.284;2022-09-02T02:23:39;94380.28;;;25.21;51.79
30819;BME280;17546;42.674;23.284;2022-09-02T02:26:05;94389.31;;;25.39;51.44
30819;BME280;17546;42.674;23.284;2022-09-02T02:28:30;94391.59;;;24.90;52.12
30819;BME280;17546;42.674;23.284;2022-09-02T02:30:55;94391.91;;;25.25;51.75
30819;BME280;17546;42.674;23.284;2022-09-02T02:33:21;94396.28;;;25.69;50.87
30819;BME280;17546;42.674;23.284;2022-09-02T02:35:47;94406.94;;;25.59;50.52
30819;BME280;17546;42.674;23.284;2022-09-02T02:38:12;94417.06;;;25.93;50.02
30819;BME280;17546;42.674;23.284;2022-09-02T02:40:37;94413.72;;;25.97;49.72
30819;BME280;17546;42.674;23.284;2022-09-02T02:43:03;94410.44;;;26.34;49.11
30819;BME280;17546;42.674;23.284;2022-09-02T02:45:28;94411.06;;;26.32;49.18
30819;BME280;17546;42.674;23.284;2022-09-02T02:47:53;94408.84;;;26.64;48.33
30819;BME280;17546;42.674;23.284;2022-09-02T02:50:20;94408.88;;;26.76;48.26
30819;BME280;17546;42.674;23.284;2022-09-02T02:52:45;94416.91;;;26.79;48.32
30819;BME280;17546;42.674;23.284;2022-09-02T02:55:11;94412.75;;;27.04;48.42
30819;BME280;17546;42.674;23.284;2022-09-02T02:57:37;94422.66;;;27.15;48.17
30819;BME280;17546;42.674;23.284;2022-09-02T03:00:07;94416.75;;;27.34;47.34
30819;BME280;17546;42.674;23.284;2022-09-02T03:02:34;94423.44;;;27.51;47.45
30819;BME280;17546;42.674;23.284;2022-09-02T03:05:01;94416.72;;;27.58;47.07
30819;BME280;17546;42.674;23.284;2022-09-02T03:07:27;94415.75;;;27.65;47.09
30819;BME280;17546;42.674;23.284;2022-09-02T03:09:52;94409.56;;;27.57;46.90
30819;BME280;17546;42.674;23.284;2022-09-02T03:12:18;94407.34;;;27.67;47.11
30819;BME280;17546;42.674;23.284;2022-09-02T03:14:43;94421.69;;;27.69;47.08
30819;BME280;17546;42.674;23.284;2022-09-02T03:17:12;94419.56;;;27.81;46.69
30819;BME280;17546;42.674;23.284;2022-09-02T03:19:38;94413.50;;;27.99;46.64
30819;BME280;17546;42.674;23.284;2022-09-02T03:22:03;94416.81;;;28.07;46.28
30819;BME280;17546;42.674;23.284;2022-09-02T03:24:28;94419.53;;;28.05;46.22
30819;BME280;17546;42.674;23.284;2022-09-02T03:26:54;94415.59;;;27.75;46.53
30819;BME280;17546;42.674;23.284;2022-09-02T03:29:19;94419.97;;;27.29;47.15
30819;BME280;17546;42.674;23.284;2022-09-02T03:31:45;94416.28;;;27.50;46.93
30819;BME280;17546;42.674;23.284;2022-09-02T03:34:10;94421.19;;;27.73;46.11
30819;BME280;17546;42.674;23.284;2022-09-02T03:36:36;94427.22;;;27.91;45.88
30819;BME280;17546;42.674;23.284;2022-09-02T03:39:10;94427.34;;;27.81;46.10
30819;BME280;17546;42.674;23.284;2022-09-02T03:41:36;94430.97;;;27.58;46.48
30819;BME280;17546;42.674;23.284;2022-09-02T03:44:01;94429.34;;;27.78;45.93
30819;BME280;17546;42.674;23.284;2022-09-02T03:46:27;94433.53;;;27.77;45.86
30819;BME280;17546;42.674;23.284;2022-09-02T03:48:52;94426.38;;;27.76;46.00
30819;BME280;17546;42.674;23.284;2022-09-02T03:51:21;94442.06;;;27.77;46.14
30819;BME280;17546;42.674;23.284;2022-09-02T03:53:47;94450.63;;;27.89;45.82
30819;BME280;17546;42.674;23.284;2022-09-02T03:56:13;94455.69;;;27.91;46.14
30819;BME280;17546;42.674;23.284;2022-09-02T03:58:39;94460.28;;;27.96;46.15
30819;BME280;17546;42.674;23.284;2022-09-02T04:01:05;94465.97;;;27.72;45.97
30819;BME280;17546;42.674;23.284;2022-09-02T04:03:30;94469.19;;;27.90;45.96
30819;BME280;17546;42.674;23.284;2022-09-02T04:05:56;94456.41;;;27.79;45.75
30819;BME280;17546;42.674;23.284;2022-09-02T04:08:22;94468.19;;;27.97;45.73
30819;BME280;17546;42.674;23.284;2022-09-02T04:10:48;94471.28;;;28.01;45.97
30819;BME280;17546;42.674;23.284;2022-09-02T04:13:13;94474.09;;;28.13;45.84
30819;BME280;17546;42.674;23.284;2022-09-02T04:15:42;94488.22;;;28.11;45.75
30819;BME280;17546;42.674;23.284;2022-09-02T04:18:11;94486.84;;;28.12;45.78
30819;BME280;17546;42.674;23.284;2022-09-02T04:20:37;94487.09;;;28.16;45.46
30819;BME280;17546;42.674;23.284;2022-09-02T04:23:03;94479.03;;;28.13;45.59
30819;BME280;17546;42.674;23.284;2022-09-02T04:25:28;94479.91;;;28.15;45.78
30819;BME280;17546;42.674;23.284;2022-09-02T04:27:54;94484.38;;;28.18;45.96
30819;BME280;17546;42.674;23.284;2022-09-02T04:30:19;94485.72;;;28.17;45.78
30819;BME280;17546;42.674;23.284;2022-09-02T04:32:45;94488.56;;;28.17;46.24
30819;BME280;17546;42.674;23.284;2022-09-02T04:35:10;94499.81;;;28.15;46.10
30819;BME280;17546;42.674;23.284;2022-09-02T04:37:36;94490.94;;;28.09;45.84
30819;BME280;17546;42.674;23.284;2022-09-02T04:40:01;94489.44;;;28.08;46.30
30819;BME280;17546;42.674;23.284;2022-09-02T04:42:26;94499.72;;;28.13;45.93
30819;BME280;17546;42.674;23.284;2022-09-02T04:44:52;94506.66;;;28.10;45.97
30819;BME280;17546;42.674;23.284;2022-09-02T04:47:18;94504.28;;;28.18;45.80
30819;BME280;17546;42.674;23.284;2022-09-02T04:50:05;94504.53;;;28.22;45.55
30819;BME280;17546;42.674;23.284;2022-09-02T04:52:36;94504.66;;;28.25;45.66
30819;BME280;17546;42.674;23.284;2022-09-02T04:55:02;94505.00;;;28.31;45.86
30819;BME280;17546;42.674;23.284;2022-09-02T04:57:27;94501.66;;;28.34;45.44
30819;BME280;17546;42.674;23.284;2022-09-02T04:59:53;94500.53;;;28.39;45.39
30819;BME280;17546;42.674;23.284;2022-09-02T05:02:18;94512.44;;;28.36;45.85
30819;BME280;17546;42.674;23.284;2022-09-02T05:04:44;94508.72;;;28.33;45.47
30819;BME280;17546;42.674;23.284;2022-09-02T05:07:09;94509.72;;;28.38;45.48
30819;BME280;17546;42.674;23.284;2022-09-02T05:09:36;94514.16;;;28.41;45.85
30819;BME280;17546;42.674;23.284;2022-09-02T05:12:02;94510.91;;;28.47;45.83
30819;BME280;17546;42.674;23.284;2022-09-02T05:14:28;94505.22;;;28.47;45.61
30819;BME280;17546;42.674;23.284;2022-09-02T05:16:53;94514.50;;;28.47;45.85
30819;BME280;17546;42.674;23.284;2022-09-02T05:19:22;94517.34;;;28.47;45.16
30819;BME280;17546;42.674;23.284;2022-09-02T05:21:48;94523.53;;;28.43;45.24
30819;BME280;17546;42.674;23.284;2022-09-02T05:24:13;94522.44;;;28.37;45.31
30819;BME280;17546;42.674;23.284;2022-09-02T05:26:39;94522.81;;;28.43;45.14
30819;BME280;17546;42.674;23.284;2022-09-02T05:29:09;94518.91;;;28.25;45.03
30819;BME280;17546;42.674;23.284;2022-09-02T05:31:35;94517.16;;;28.19;44.96
30819;BME280;17546;42.674;23.284;2022-09-02T05:34:01;94518.13;;;28.36;45.43
30819;BME280;17546;42.674;23.284;2022-09-02T05:36:26;94510.47;;;28.27;45.42
30819;BME280;17546;42.674;23.284;2022-09-02T05:38:52;94510.00;;;28.18;44.95
30819;BME280;17546;42.674;23.284;2022-09-02T05:41:18;94517.66;;;28.04;45.25
30819;BME280;17546;42.674;23.284;2022-09-02T05:43:47;94513.41;;;28.29;44.84
30819;BME280;17546;42.674;23.284;2022-09-02T05:46:13;94506.09;;;28.37;45.35
30819;BME280;17546;42.674;23.284;2022-09-02T05:48:41;94501.03;;;28.48;45.46
30819;BME280;17546;42.674;23.284;2022-09-02T05:51:25;94511.50;;;28.69;45.12
30819;BME280;17546;42.674;23.284;2022-09-02T05:53:51;94503.13;;;28.84;44.65
30819;BME280;17546;42.674;23.284;2022-09-02T05:56:17;94498.84;;;28.97;44.56
30819;BME280;17546;42.674;23.284;2022-09-02T05:58:43;94516.03;;;29.11;44.67
30819;BME280;17546;42.674;23.284;2022-09-02T06:01:11;94505.72;;;29.18;44.08
30819;BME280;17546;42.674;23.284;2022-09-02T06:03:37;94508.13;;;29.23;43.29
30819;BME280;17546;42.674;23.284;2022-09-02T06:06:03;94501.59;;;29.21;43.62
30819;BME280;17546;42.674;23.284;2022-09-02T06:08:28;94506.44;;;29.18;43.98
30819;BME280;17546;42.674;23.284;2022-09-02T06:10:54;94512.59;;;29.27;44.00
30819;BME280;17546;42.674;23.284;2022-09-02T06:13:19;94510.25;;;29.23;43.70
30819;BME280;17546;42.674;23.284;2022-09-02T06:15:47;94507.63;;;29.27;43.57
30819;BME280;17546;42.674;23.284;2022-09-02T06:18:12;94510.19;;;29.35;43.50
30819;BME280;17546;42.674;23.284;2022-09-02T06:20:41;94513.78;;;29.35;43.63
30819;BME280;17546;42.674;23.284;2022-09-02T06:23:07;94514.84;;;29.42;43.84
30819;BME280;17546;42.674;23.284;2022-09-02T06:25:35;94514.84;;;29.28;43.55
30819;BME280;17546;42.674;23.284;2022-09-02T06:28:00;94518.34;;;29.40;43.44
30819;BME280;17546;42.674;23.284;2022-09-02T06:30:25;94517.50;;;29.38;43.29
30819;BME280;17546;42.674;23.284;2022-09-02T06:32:51;94517.25;;;29.34;43.09
30819;BME280;17546;42.674;23.284;2022-09-02T06:35:16;94517.72;;;29.42;43.31
30819;BME280;17546;42.674;23.284;2022-09-02T06:37:41;94514.28;;;29.32;43.67
30819;BME280;17546;42.674;23.284;2022-09-02T06:40:07;94525.25;;;29.23;42.49
30819;BME280;17546;42.674;23.284;2022-09-02T06:42:32;94512.06;;;29.30;42.54
30819;BME280;17546;42.674;23.284;2022-09-02T06:44:58;94527.09;;;29.31;43.10
30819;BME280;17546;42.674;23.284;2022-09-02T06:47:23;94534.38;;;29.34;43.20
30819;BME280;17546;42.674;23.284;2022-09-02T06:49:49;94530.09;;;28.95;43.21
30819;BME280;17546;42.674;23.284;2022-09-02T06:52:14;94527.78;;;29.05;43.14
30819;BME280;17546;42.674;23.284;2022-09-02T06:54:39;94531.47;;;29.20;43.52
30819;BME280;17546;42.674;23.284;2022-09-02T06:57:04;94542.16;;;29.19;43.06
30819;BME280;17546;42.674;23.284;2022-09-02T06:59:30;94537.53;;;29.26;42.99
30819;BME280;17546;42.674;23.284;2022-09-02T07:01:55;94539.13;;;29.29;42.92
30819;BME280;17546;42.674;23.284;2022-09-02T07:04:21;94544.25;;;29.19;43.23
30819;BME280;17546;42.674;23.284;2022-09-02T07:07:06;94551.56;;;29.22;42.93
30819;BME280;17546;42.674;23.284;2022-09-02T07:09:32;94552.69;;;29.17;43.52
30819;BME280;17546;42.674;23.284;2022-09-02T07:11:58;94546.47;;;29.20;44.05
30819;BME280;17546;42.674;23.284;2022-09-02T07:14:25;94542.53;;;29.14;43.60
30819;BME280;17546;42.674;23.284;2022-09-02T07:16:54;94545.63;;;29.18;43.06
30819;BME280;17546;42.674;23.284;2022-09-02T07:19:21;94551.59;;;29.10;42.96
30819;BME280;17546;42.674;23.284;2022-09-02T07:21:47;94549.50;;;29.11;43.54
30819;BME280;17546;42.674;23.284;2022-09-02T07:24:14;94556.19;;;29.15;44.01
30819;BME280;17546;42.674;23.284;2022-09-02T07:26:40;94554.81;;;29.16;44.03
30819;BME280;17546;42.674;23.284;2022-09-02T07:29:06;94551.97;;;29.04;42.84
30819;BME280;17546;42.674;23.284;2022-09-02T07:31:33;94556.56;;;29.10;43.46
30819;BME280;17546;42.674;23.284;2022-09-02T07:33:58;94553.72;;;29.10;43.34
30819;BME280;17546;42.674;23.284;2022-09-02T07:36:24;94549.84;;;29.17;43.55
30819;BME280;17546;42.674;23.284;2022-09-02T07:38:50;94542.66;;;29.16;43.05
30819;BME280;17546;42.674;23.284;2022-09-02T07:41:15;94549.97;;;29.07;42.21
30819;BME280;17546;42.674;23.284;2022-09-02T07:43:41;94549.13;;;29.04;42.78
30819;BME280;17546;42.674;23.284;2022-09-02T07:46:06;94552.59;;;29.15;42.93
30819;BME280;17546;42.674;23.284;2022-09-02T07:48:32;94551.31;;;29.18;43.40
30819;BME280;17546;42.674;23.284;2022-09-02T07:50:58;94552.81;;;29.19;43.19
30819;BME280;17546;42.674;23.284;2022-09-02T07:53:23;94544.66;;;29.01;43.08
30819;BME280;17546;42.674;23.284;2022-09-02T07:55:48;94549.34;;;28.83;43.31
30819;BME280;17546;42.674;23.284;2022-09-02T07:58:14;94553.44;;;28.80;43.20
30819;BME280;17546;42.674;23.284;2022-09-02T08:00:40;94558.06;;;28.61;43.96
30819;BME280;17546;42.674;23.284;2022-09-02T08:03:06;94560.16;;;28.73;43.58
30819;BME280;17546;42.674;23.284;2022-09-02T08:05:32;94569.53;;;28.87;43.50
30819;BME280;17546;42.674;23.284;2022-09-02T08:07:57;94570.31;;;29.13;43.32
30819;BME280;17546;42.674;23.284;2022-09-02T08:10:24;94565.72;;;29.08;43.60
30819;BME280;17546;42.674;23.284;2022-09-02T08:12:53;94570.97;;;29.00;43.54
30819;BME280;17546;42.674;23.284;2022-09-02T08:15:19;94573.41;;;29.05;43.31
30819;BME280;17546;42.674;23.284;2022-09-02T08:17:45;94575.41;;;29.15;42.78
30819;BME280;17546;42.674;23.284;2022-09-02T08:20:11;94576.88;;;29.16;42.93
30819;BME280;17546;42.674;23.284;2022-09-02T08:22:37;94571.41;;;29.08;43.22
30819;BME280;17546;42.674;23.284;2022-09-02T08:25:03;94575.41;;;29.15;43.06
30819;BME280;17546;42.674;23.284;2022-09-02T08:27:28;94575.63;;;29.19;43.09
30819;BME280;17546;42.674;23.284;2022-09-02T08:29:54;94581.31;;;29.19;43.34
30819;BME280;17546;42.674;23.284;2022-09-02T08:32:19;94577.47;;;29.26;43.25
30819;BME280;17546;42.674;23.284;2022-09-02T08:34:44;94574.03;;;29.16;42.64
30819;BME280;17546;42.674;23.284;2022-09-02T08:37:10;94570.88;;;29.23;42.54
30819;BME280;17546;42.674;23.284;2022-09-02T08:39:35;94574.38;;;29.22;43.22
30819;BME280;17546;42.674;23.284;2022-09-02T08:44:35;94573.09;;;29.25;42.68
30819;BME280;17546;42.674;23.284;2022-09-02T08:47:01;94564.56;;;29.25;42.39
30819;BME280;17546;42.674;23.284;2022-09-02T08:49:39;94566.91;;;29.29;42.51
30819;BME280;17546;42.674;23.284;2022-09-02T08:52:05;94569.56;;;29.38;42.81
30819;BME280;17546;42.674;23.284;2022-09-02T08:56:56;94562.28;;;29.35;43.05
30819;BME280;17546;42.674;23.284;2022-09-02T08:59:23;94559.53;;;29.37;42.92
30819;BME280;17546;42.674;23.284;2022-09-02T09:04:19;94554.19;;;29.43;42.55
30819;BME280;17546;42.674;23.284;2022-09-02T09:06:52;94549.72;;;29.40;42.18
30819;BME280;17546;42.674;23.284;2022-09-02T09:09:27;94555.25;;;29.50;42.22
30819;BME280;17546;42.674;23.284;2022-09-02T09:14:53;94550.28;;;29.25;41.67
30819;BME280;17546;42.674;23.284;2022-09-02T09:17:36;94555.16;;;29.62;41.95
30819;BME280;17546;42.674;23.284;2022-09-02T09:20:07;94551.28;;;29.69;42.10
30819;BME280;17546;42.674;23.284;2022-09-02T09:22:34;94552.41;;;29.64;41.65
30819;BME280;17546;42.674;23.284;2022-09-02T09:25:01;94542.75;;;29.43;41.50
30819;BME280;17546;42.674;23.284;2022-09-02T09:27:27;94550.41;;;29.27;41.75
30819;BME280;17546;42.674;23.284;2022-09-02T09:29:53;94541.78;;;29.39;41.57
30819;BME280;17546;42.674;23.284;2022-09-02T09:32:22;94544.22;;;29.44;41.27
30819;BME280;17546;42.674;23.284;2022-09-02T09:37:32;94540.16;;;29.22;41.72
30819;BME280;17546;42.674;23.284;2022-09-02T09:39:58;94541.81;;;29.01;41.96
30819;BME280;17546;42.674;23.284;2022-09-02T09:42:34;94534.03;;;29.02;42.05
30819;BME280;17546;42.674;23.284;2022-09-02T09:45:10;94541.94;;;29.55;40.91
30819;BME280;17546;42.674;23.284;2022-09-02T09:47:39;94536.41;;;29.71;41.09
30819;BME280;17546;42.674;23.284;2022-09-02T09:50:15;94543.16;;;29.77;41.55
30819;BME280;17546;42.674;23.284;2022-09-02T09:52:41;94542.84;;;29.71;40.89
30819;BME280;17546;42.674;23.284;2022-09-02T09:55:14;94544.84;;;29.69;40.91
30819;BME280;17546;42.674;23.284;2022-09-02T09:57:41;94543.97;;;29.66;41.09
30819;BME280;17546;42.674;23.284;2022-09-02T10:02:44;94539.97;;;29.71;41.02
30819;BME280;17546;42.674;23.284;2022-09-02T10:05:15;94545.56;;;29.69;41.08
30819;BME280;17546;42.674;23.284;2022-09-02T10:07:41;94548.44;;;29.83;41.39
30819;BME280;17546;42.674;23.284;2022-09-02T10:10:17;94538.19;;;29.78;41.25
30819;BME280;17546;42.674;23.284;2022-09-02T10:12:44;94537.69;;;29.81;41.27
30819;BME280;17546;42.674;23.284;2022-09-02T10:15:09;94527.94;;;29.86;41.46
30819;BME280;17546;42.674;23.284;2022-09-02T10:22:31;94532.38;;;29.76;41.17
30819;BME280;17546;42.674;23.284;2022-09-02T10:27:45;94537.63;;;29.67;41.21
30819;BME280;17546;42.674;23.284;2022-09-02T10:30:21;94536.25;;;29.55;42.25
30819;BME280;17546;42.674;23.284;2022-09-02T10:38:16;94531.91;;;29.67;42.27
30819;BME280;17546;42.674;23.284;2022-09-02T10:40:53;94533.34;;;29.80;42.36
30819;BME280;17546;42.674;23.284;2022-09-02T10:46:05;94536.13;;;29.92;42.14
30819;BME280;17546;42.674;23.284;2022-09-02T10:51:32;94537.28;;;30.01;42.15
30819;BME280;17546;42.674;23.284;2022-09-02T10:54:03;94529.53;;;29.90;41.40
30819;BME280;17546;42.674;23.284;2022-09-02T10:56:39;94532.81;;;29.84;41.50
30819;BME280;17546;42.674;23.284;2022-09-02T10:59:10;94535.06;;;29.85;41.25
30819;BME280;17546;42.674;23.284;2022-09-02T11:01:42;94541.06;;;29.78;42.06
30819;BME280;17546;42.674;23.284;2022-09-02T11:06:42;94522.47;;;29.77;41.86
30819;BME280;17546;42.674;23.284;2022-09-02T11:09:12;94521.50;;;30.00;41.60
30819;BME280;17546;42.674;23.284;2022-09-02T11:11:46;94513.16;;;30.18;41.01
30819;BME280;17546;42.674;23.284;2022-09-02T11:17:01;94518.44;;;30.37;41.03
30819;BME280;17546;42.674;23.284;2022-09-02T11:37:02;94506.50;;;30.41;39.86
30819;BME280;17546;42.674;23.284;2022-09-02T11:39:39;94497.16;;;30.54;39.97
30819;BME280;17546;42.674;23.284;2022-09-02T11:55:15;94481.13;;;31.06;39.68
30819;BME280;17546;42.674;23.284;2022-09-02T11:57:41;94485.78;;;29.99;40.00
30819;BME280;17546;42.674;23.284;2022-09-02T12:00:24;94484.69;;;30.34;39.63
30819;BME280;17546;42.674;23.284;2022-09-02T12:02:50;94482.19;;;30.69;39.92
30819;BME280;17546;42.674;23.284;2022-09-02T12:13:32;94481.06;;;30.61;39.52
30819;BME280;17546;42.674;23.284;2022-09-02T12:21:18;94478.44;;;31.10;38.85
30819;BME280;17546;42.674;23.284;2022-09-02T12:26:13;94470.25;;;31.19;38.21
30819;BME280;17546;42.674;23.284;2022-09-02T12:28:38;94462.34;;;31.33;38.90
30819;BME280;17546;42.674;23.284;2022-09-02T12:33:42;94457.78;;;31.58;39.29
30819;BME280;17546;42.674;23.284;2022-09-02T12:41:42;94444.38;;;31.46;38.54
30819;BME280;17546;42.674;23.284;2022-09-02T12:49:04;94436.59;;;30.28;39.76
30819;BME280;17546;42.674;23.284;2022-09-02T12:54:23;94444.06;;;31.40;37.83
30819;BME280;17546;42.674;23.284;2022-09-02T12:56:50;94440.56;;;31.42;38.21
30819;BME280;17546;42.674;23.284;2022-09-02T12:59:29;94437.06;;;31.43;39.12
30819;BME280;17546;42.674;23.284;2022-09-02T13:23:37;94432.91;;;30.85;39.08
30819;BME280;17546;42.674;23.284;2022-09-02T13:26:40;94434.19;;;30.82;38.77
30819;BME280;17546;42.674;23.284;2022-09-02T13:31:28;94427.53;;;30.77;38.96
30819;BME280;17546;42.674;23.284;2022-09-02T13:34:00;94426.50;;;30.41;40.03
30819;BME280;17546;42.674;23.284;2022-09-02T13:36:27;94426.31;;;30.37;40.15
30819;BME280;17546;42.674;23.284;2022-09-02T13:38:53;94432.66;;;30.21;42.86
30819;BME280;17546;42.674;23.284;2022-09-02T13:41:31;94446.47;;;28.91;47.12
30819;BME280;17546;42.674;23.284;2022-09-02T13:46:41;94460.50;;;28.00;50.23
30819;BME280;17546;42.674;23.284;2022-09-02T13:49:07;94456.06;;;27.73;51.19
30819;BME280;17546;42.674;23.284;2022-09-02T13:51:33;94456.81;;;27.62;51.78
30819;BME280;17546;42.674;23.284;2022-09-02T13:53:58;94460.50;;;28.00;50.49
30819;BME280;17546;42.674;23.284;2022-09-02T13:56:24;94459.41;;;28.05;50.53
30819;BME280;17546;42.674;23.284;2022-09-02T13:58:52;94458.38;;;28.12;49.95
30819;BME280;17546;42.674;23.284;2022-09-02T14:03:49;94458.25;;;28.10;52.25
30819;BME280;17546;42.674;23.284;2022-09-02T14:06:19;94462.63;;;27.88;50.65
30819;BME280;17546;42.674;23.284;2022-09-02T14:08:47;94476.72;;;28.09;50.47
30819;BME280;17546;42.674;23.284;2022-09-02T14:11:15;94480.78;;;28.18;50.95
30819;BME280;17546;42.674;23.284;2022-09-02T14:13:42;94481.63;;;28.20;51.73
30819;BME280;17546;42.674;23.284;2022-09-02T14:16:25;94496.13;;;28.25;50.53
30819;BME280;17546;42.674;23.284;2022-09-02T14:19:09;94504.81;;;28.03;50.98
30819;BME280;17546;42.674;23.284;2022-09-02T14:21:43;94512.72;;;28.16;51.25
30819;BME280;17546;42.674;23.284;2022-09-02T14:24:10;94496.16;;;27.66;52.37
30819;BME280;17546;42.674;23.284;2022-09-02T14:26:44;94492.59;;;27.20;52.33
30819;BME280;17546;42.674;23.284;2022-09-02T14:29:11;94503.78;;;27.39;52.60
30819;BME280;17546;42.674;23.284;2022-09-02T14:31:37;94507.88;;;27.60;52.26
30819;BME280;17546;42.674;23.284;2022-09-02T14:34:02;94510.84;;;27.62;52.68
30819;BME280;17546;42.674;23.284;2022-09-02T14:36:34;94510.13;;;27.61;52.47
30819;BME280;17546;42.674;23.284;2022-09-02T14:39:13;94511.09;;;27.66;51.88
30819;BME280;17546;42.674;23.284;2022-09-02T14:41:46;94506.41;;;27.71;51.53
30819;BME280;17546;42.674;23.284;2022-09-02T14:44:14;94507.63;;;27.79;51.10
30819;BME280;17546;42.674;23.284;2022-09-02T14:49:27;94517.06;;;27.94;51.94
30819;BME280;17546;42.674;23.284;2022-09-02T14:51:57;94521.66;;;27.99;52.08
30819;BME280;17546;42.674;23.284;2022-09-02T14:54:39;94529.56;;;28.12;52.01
30819;BME280;17546;42.674;23.284;2022-09-02T14:57:27;94528.94;;;28.14;51.84
30819;BME280;17546;42.674;23.284;2022-09-02T14:59:54;94530.94;;;28.11;51.45
30819;BME280;17546;42.674;23.284;2022-09-02T15:04:45;94523.84;;;27.65;51.74
30819;BME280;17546;42.674;23.284;2022-09-02T15:07:11;94532.53;;;27.91;51.56
30819;BME280;17546;42.674;23.284;2022-09-02T15:09:36;94533.50;;;27.95;52.10